Fort Lauderdale Executive Airport


Codes: KFXE/FXE
Name: Fort Lauderdale Executive Airport
City: Fort Lauderdale
Country: United States
Elevation: 13 ft.
Website:
Wikipedia:

Photos at Fort Lauderdale Executive Airport


   Photos courtesy of SpottingLog. You can add your own sightings and photos by signing up for a free trial today.



N842JS, 17-Feb-2004
© Erik van der Eyken

N783ML, 17-Feb-2004
© Erik van der Eyken


Weather at Fort Lauderdale Executive Airport


Time (UTC)DescriptionTempratureWindCloud coverageVisibilityPressureHumidity
19-Apr-2024 06:00Few Clouds24°C7 mph, SE19%10000m1018hPa75%
19-Apr-2024 09:00Broken Clouds24°C4 mph, SE58%10000m1017hPa72%
19-Apr-2024 12:00Broken Clouds24°C4 mph, SE83%10000m1018hPa71%
19-Apr-2024 15:00Broken Clouds27°C7 mph, SE73%10000m1019hPa57%
19-Apr-2024 18:00Broken Clouds28°C9 mph, SE52%10000m1018hPa46%
19-Apr-2024 21:00Clear Sky28°C11 mph, SE1%10000m1017hPa48%
20-Apr-2024 00:00Clear Sky26°C9 mph, SE6%10000m1018hPa54%
20-Apr-2024 03:00Clear Sky26°C9 mph, SE1%10000m1019hPa55%
20-Apr-2024 06:00Clear Sky25°C4 mph, S1%10000m1018hPa53%
20-Apr-2024 09:00Clear Sky24°C2 mph, S0%10000m1018hPa56%
20-Apr-2024 12:00Clear Sky25°C4 mph, SW0%10000m1019hPa59%
20-Apr-2024 15:00Clear Sky27°C2 mph, SE0%10000m1020hPa50%
20-Apr-2024 18:00Clear Sky29°C13 mph, SE0%10000m1018hPa48%
20-Apr-2024 21:00Clear Sky28°C16 mph, SE0%10000m1016hPa51%
21-Apr-2024 00:00Few Clouds27°C9 mph, S24%10000m1017hPa50%
21-Apr-2024 03:00Scattered Clouds27°C9 mph, S42%10000m1018hPa51%
21-Apr-2024 06:00Scattered Clouds26°C7 mph, S28%10000m1017hPa54%
21-Apr-2024 09:00Overcast Clouds25°C4 mph, S88%10000m1016hPa58%
21-Apr-2024 12:00Broken Clouds25°C4 mph, S83%10000m1017hPa63%
21-Apr-2024 15:00Few Clouds28°C9 mph, S23%10000m1017hPa53%
21-Apr-2024 18:00Few Clouds29°C13 mph, SE13%10000m1016hPa51%
21-Apr-2024 21:00Clear Sky29°C18 mph, SE2%10000m1014hPa50%
22-Apr-2024 00:00Light Rain27°C13 mph, S17%10000m1015hPa57%
22-Apr-2024 03:00Light Rain26°C9 mph, S63%10000m1016hPa61%
22-Apr-2024 06:00Light Rain25°C4 mph, SW42%10000m1015hPa64%
22-Apr-2024 09:00Clear Sky25°C2 mph, SW4%10000m1014hPa67%
22-Apr-2024 12:00Clear Sky25°C4 mph, S5%10000m1015hPa68%
22-Apr-2024 15:00Clear Sky28°C9 mph, S8%10000m1016hPa54%
22-Apr-2024 18:00Clear Sky31°C13 mph, S5%10000m1014hPa45%
22-Apr-2024 21:00Few Clouds30°C18 mph, SE21%10000m1012hPa50%
23-Apr-2024 00:00Scattered Clouds30°C9 mph, W45%10000m1013hPa45%
23-Apr-2024 03:00Few Clouds27°C13 mph, NW18%10000m1015hPa53%
23-Apr-2024 06:00Few Clouds25°C11 mph, N11%10000m1015hPa67%
23-Apr-2024 09:00Clear Sky25°C11 mph, N9%10000m1015hPa69%
23-Apr-2024 12:00Few Clouds25°C11 mph, NE14%10000m1016hPa71%
23-Apr-2024 15:00Broken Clouds27°C11 mph, NE76%10000m1017hPa63%
23-Apr-2024 18:00Light Rain27°C13 mph, NE77%10000m1017hPa65%
23-Apr-2024 21:00Moderate Rain26°C16 mph, NE77%10000m1016hPa67%
24-Apr-2024 00:00Broken Clouds25°C13 mph, E84%10000m1017hPa73%
24-Apr-2024 03:00Broken Clouds25°C9 mph, E75%10000m1018hPa72%